createdAt,value
2018-08-25T00:02:00.988Z,74.20
2018-08-25T00:04:29.884Z,74.30
2018-08-25T00:06:58.832Z,74.50
2018-08-25T00:09:27.658Z,74.50
2018-08-25T00:11:56.511Z,74.90
2018-08-25T00:14:25.381Z,75.20
2018-08-25T00:16:54.211Z,75.20
2018-08-25T00:19:23.059Z,75.50
2018-08-25T00:21:52.082Z,75.40
2018-08-25T00:24:20.948Z,75.60
2018-08-25T00:26:49.790Z,75.50
2018-08-25T00:29:18.694Z,75.40
2018-08-25T00:31:47.635Z,75.30
2018-08-25T00:34:16.468Z,75.40
2018-08-25T00:36:45.357Z,75.50
2018-08-25T00:39:14.203Z,75.60
2018-08-25T00:41:43.039Z,75.60
2018-08-25T00:44:11.931Z,76.00
2018-08-25T00:46:40.793Z,75.70
2018-08-25T00:49:09.650Z,75.70
2018-08-25T00:51:38.588Z,75.60
2018-08-25T00:54:14.067Z,76.00
2018-08-25T00:56:42.946Z,76.40
2018-08-25T00:59:11.787Z,76.60
2018-08-25T01:01:40.662Z,76.90
2018-08-25T01:04:09.540Z,76.80
2018-08-25T01:06:38.409Z,76.70
2018-08-25T01:09:08.924Z,76.70
2018-08-25T01:11:37.809Z,76.60
2018-08-25T01:14:06.723Z,76.60
2018-08-25T01:16:35.564Z,76.60
2018-08-25T01:19:04.472Z,76.60
2018-08-25T01:21:33.309Z,76.90
2018-08-25T01:24:03.127Z,77.70
2018-08-25T01:26:31.996Z,77.30
2018-08-25T01:29:00.829Z,77.30
2018-08-25T01:31:30.326Z,77.10
2018-08-25T01:34:00.791Z,77.40
2018-08-25T01:36:29.744Z,77.70
2018-08-25T01:38:58.594Z,78.30
2018-08-25T01:41:27.480Z,78.30
2018-08-25T01:43:56.323Z,78.60
2018-08-25T01:46:25.154Z,78.80
2018-08-25T01:48:54.045Z,78.50
2018-08-25T01:51:22.902Z,78.40
2018-08-25T01:53:51.772Z,78.10
2018-08-25T01:56:20.692Z,78.10
2018-08-25T01:58:49.709Z,78.00
2018-08-25T02:01:18.562Z,77.90
2018-08-25T02:03:47.434Z,78.60
2018-08-25T02:06:16.253Z,77.60
2018-08-25T02:08:45.082Z,77.30
2018-08-25T02:11:13.961Z,77.30
2018-08-25T02:13:42.805Z,77.10
2018-08-25T02:16:11.653Z,76.90
2018-08-25T02:18:40.527Z,76.80
2018-08-25T02:21:09.382Z,76.60
2018-08-25T02:23:38.235Z,76.70
2018-08-25T02:26:07.118Z,76.60
2018-08-25T02:28:35.944Z,76.90
2018-08-25T02:31:04.909Z,77.20
2018-08-25T02:33:33.902Z,77.60
2018-08-25T02:36:02.835Z,78.10
2018-08-25T02:38:31.763Z,78.30
2018-08-25T02:41:00.679Z,78.10
2018-08-25T02:43:29.527Z,78.20
2018-08-25T02:45:58.356Z,78.60
2018-08-25T02:48:27.240Z,78.70
2018-08-25T02:50:56.072Z,78.50
2018-08-25T02:53:24.925Z,78.20
2018-08-25T02:55:53.867Z,78.20
2018-08-25T02:58:22.716Z,78.10
2018-08-25T03:00:51.547Z,78.40
2018-08-25T03:03:20.520Z,78.70
2018-08-25T03:05:49.347Z,78.80
2018-08-25T03:08:18.200Z,78.80
2018-08-25T03:10:47.098Z,78.80
2018-08-25T03:13:15.932Z,78.60
2018-08-25T03:15:44.761Z,78.50
2018-08-25T03:18:13.690Z,78.50
2018-08-25T03:20:42.532Z,78.60
2018-08-25T03:23:11.380Z,78.50
2018-08-25T03:25:40.290Z,78.50
2018-08-25T03:28:09.111Z,78.30
2018-08-25T03:30:37.939Z,78.20
2018-08-25T03:33:07.083Z,78.10
2018-08-25T03:35:35.952Z,78.40
2018-08-25T03:38:04.811Z,78.60
2018-08-25T03:40:33.690Z,78.70
2018-08-25T03:43:02.536Z,78.60
2018-08-25T03:45:31.408Z,78.40
2018-08-25T03:48:00.296Z,78.20
2018-08-25T03:50:29.128Z,78.30
2018-08-25T03:52:57.992Z,78.60
2018-08-25T03:55:26.972Z,78.60
2018-08-25T03:57:55.823Z,78.80
2018-08-25T04:00:24.658Z,78.60
2018-08-25T04:02:53.643Z,78.40
2018-08-25T04:05:22.495Z,78.40
2018-08-25T04:07:51.346Z,78.00
2018-08-25T04:10:20.370Z,77.90
2018-08-25T04:12:49.293Z,77.70
2018-08-25T04:15:18.157Z,77.70
2018-08-25T04:17:47.076Z,77.60
2018-08-25T04:20:15.926Z,77.90
2018-08-25T04:22:44.762Z,77.90
2018-08-25T04:25:13.676Z,78.30
2018-08-25T04:27:42.500Z,77.90
2018-08-25T04:30:11.329Z,78.20
2018-08-25T04:32:40.224Z,77.90
2018-08-25T04:35:09.070Z,78.00
2018-08-25T04:37:37.916Z,78.00
2018-08-25T04:40:06.791Z,77.90
2018-08-25T04:42:35.615Z,78.00
2018-08-25T04:45:04.451Z,78.10
2018-08-25T04:47:33.324Z,77.80
2018-08-25T04:50:02.188Z,78.10
2018-08-25T04:52:31.119Z,77.90
2018-08-25T04:55:00.069Z,78.00
2018-08-25T04:57:28.976Z,77.70
2018-08-25T04:59:57.829Z,78.00
2018-08-25T05:02:26.706Z,79.00
2018-08-25T05:04:55.569Z,77.90
2018-08-25T05:07:24.423Z,77.50
2018-08-25T05:09:53.328Z,77.90
2018-08-25T05:12:22.157Z,78.40
2018-08-25T05:14:51.005Z,78.60
2018-08-25T05:17:19.981Z,78.60
2018-08-25T05:19:48.827Z,79.20
2018-08-25T05:22:17.677Z,78.60
2018-08-25T05:24:46.581Z,78.80
2018-08-25T05:27:15.437Z,78.80
2018-08-25T05:29:44.300Z,78.50
2018-08-25T05:32:13.181Z,78.80
2018-08-25T05:34:42.032Z,77.90
2018-08-25T05:37:10.871Z,78.40
2018-08-25T05:39:39.737Z,78.10
2018-08-25T05:42:08.641Z,77.70
2018-08-25T05:44:37.459Z,77.30
2018-08-25T05:47:06.445Z,77.50
2018-08-25T05:49:35.675Z,76.90
2018-08-25T05:52:04.535Z,76.70
2018-08-25T05:54:33.404Z,76.50
2018-08-25T05:57:02.252Z,76.50
2018-08-25T05:59:31.103Z,76.70
2018-08-25T06:01:59.988Z,76.10
2018-08-25T06:04:28.908Z,75.70
2018-08-25T06:06:57.745Z,75.40
2018-08-25T06:09:26.613Z,75.60
2018-08-25T06:11:55.449Z,75.20
2018-08-25T06:14:24.279Z,75.40
2018-08-25T06:16:53.165Z,75.20
2018-08-25T06:19:22.077Z,75.60
2018-08-25T06:21:50.922Z,75.60
2018-08-25T06:24:19.869Z,75.40
2018-08-25T06:26:48.704Z,75.60
2018-08-25T06:29:17.539Z,75.60
2018-08-25T06:31:46.466Z,75.00
2018-08-25T06:34:15.310Z,75.00
2018-08-25T06:36:44.210Z,74.60
2018-08-25T06:39:13.145Z,74.90
2018-08-25T06:41:43.395Z,74.20
2018-08-25T06:44:12.273Z,74.70
2018-08-25T06:46:45.005Z,75.00
2018-08-25T06:49:13.876Z,74.90
2018-08-25T06:51:42.864Z,74.70
2018-08-25T06:54:11.777Z,75.50
2018-08-25T06:56:40.630Z,75.50
2018-08-25T06:59:09.447Z,75.50
2018-08-25T07:01:38.315Z,75.40
2018-08-25T07:04:07.162Z,76.00
2018-08-25T07:06:36.030Z,75.20
2018-08-25T07:09:08.277Z,75.30
2018-08-25T07:11:37.894Z,75.40
2018-08-25T07:14:06.888Z,75.20
2018-08-25T07:16:35.816Z,74.90
2018-08-25T07:19:04.845Z,74.70
2018-08-25T07:21:33.705Z,73.90
2018-08-25T07:24:02.643Z,73.60
2018-08-25T07:26:31.482Z,73.30
2018-08-25T07:29:00.496Z,73.20
2018-08-25T07:31:29.323Z,74.00
2018-08-25T07:33:58.170Z,74.70
2018-08-25T07:36:27.095Z,75.60
2018-08-25T07:38:55.937Z,75.30
2018-08-25T07:41:24.785Z,76.00
2018-08-25T07:43:53.692Z,76.70
2018-08-25T07:46:22.540Z,77.00
2018-08-25T07:48:51.385Z,75.50
2018-08-25T07:51:20.272Z,75.00
2018-08-25T07:53:49.253Z,74.60
2018-08-25T07:56:18.376Z,74.30
2018-08-25T07:58:47.248Z,74.50
2018-08-25T08:01:16.117Z,74.50
2018-08-25T08:03:45.114Z,74.70
2018-08-25T08:06:13.997Z,74.50
2018-08-25T08:08:42.880Z,74.10
2018-08-25T08:11:11.781Z,74.10
2018-08-25T08:13:41.242Z,74.30
2018-08-25T08:16:10.202Z,74.30
2018-08-25T08:18:39.084Z,74.70
2018-08-25T08:21:07.957Z,74.70
2018-08-25T08:23:36.866Z,74.50
2018-08-25T08:26:05.782Z,75.80
2018-08-25T08:28:34.600Z,75.40
2018-08-25T08:31:03.423Z,75.70
2018-08-25T08:33:32.307Z,76.30
2018-08-25T08:36:01.203Z,76.00
2018-08-25T08:38:32.945Z,73.20
2018-08-25T08:41:01.798Z,73.20
2018-08-25T08:43:30.724Z,72.80
2018-08-25T08:45:59.633Z,72.40
2018-08-25T08:48:28.479Z,72.20
2018-08-25T08:50:57.343Z,72.30
2018-08-25T08:53:26.353Z,72.20
2018-08-25T08:55:55.364Z,71.80
2018-08-25T08:58:24.307Z,71.10
2018-08-25T09:00:53.857Z,71.10
2018-08-25T09:03:22.737Z,71.00
2018-08-25T09:05:51.953Z,70.50
2018-08-25T09:08:20.773Z,70.50
2018-08-25T09:10:49.597Z,70.00
2018-08-25T09:13:18.516Z,69.60
2018-08-25T09:15:47.901Z,69.10
2018-08-25T09:18:17.060Z,68.80
2018-08-25T09:20:45.983Z,69.40
2018-08-25T09:23:14.820Z,69.40
2018-08-25T09:25:43.663Z,69.20
2018-08-25T09:28:12.524Z,68.60
2018-08-25T09:30:41.340Z,67.90
2018-08-25T09:33:10.160Z,67.90
2018-08-25T09:35:39.127Z,68.80
2018-08-25T09:38:08.208Z,69.00
2018-08-25T09:40:37.176Z,69.60
2018-08-25T09:43:06.708Z,70.20
2018-08-25T09:45:35.824Z,68.40
2018-08-25T09:48:04.700Z,69.50
2018-08-25T09:50:33.568Z,70.10
2018-08-25T09:53:02.433Z,69.20
2018-08-25T09:55:31.318Z,70.50
2018-08-25T09:58:00.265Z,70.00
2018-08-25T10:00:29.100Z,70.80
2018-08-25T10:02:57.940Z,70.70
2018-08-25T10:05:26.883Z,71.50
2018-08-25T10:07:55.721Z,70.10
2018-08-25T10:10:24.581Z,70.80
2018-08-25T10:12:53.513Z,70.10
2018-08-25T10:15:22.482Z,69.40
2018-08-25T10:17:51.308Z,69.60
2018-08-25T10:20:20.115Z,69.00
2018-08-25T10:22:49.109Z,69.50
2018-08-25T10:25:17.922Z,69.20
2018-08-25T10:27:48.004Z,69.20
2018-08-25T10:30:16.869Z,69.70
2018-08-25T10:32:45.712Z,67.90
2018-08-25T10:35:14.543Z,69.20
2018-08-25T10:37:44.389Z,69.20
2018-08-25T10:40:13.219Z,69.20
2018-08-25T10:42:42.074Z,68.30
2018-08-25T10:45:11.092Z,67.60
2018-08-25T10:47:39.922Z,66.90
2018-08-25T10:50:08.749Z,66.60
2018-08-25T10:52:37.709Z,66.70
2018-08-25T10:55:06.631Z,66.60
2018-08-25T10:57:35.487Z,66.60
2018-08-25T11:00:04.384Z,66.70
2018-08-25T11:02:33.230Z,66.30
2018-08-25T11:05:02.075Z,66.80
2018-08-25T11:07:31.492Z,66.90
2018-08-25T11:10:00.396Z,64.70
2018-08-25T11:12:29.467Z,65.20
2018-08-25T11:14:58.290Z,65.00
2018-08-25T11:17:27.115Z,65.00
2018-08-25T11:19:56.075Z,66.20
2018-08-25T11:22:24.919Z,65.90
2018-08-25T11:24:54.037Z,65.80
2018-08-25T11:27:22.935Z,65.40
2018-08-25T11:29:51.911Z,64.60
2018-08-25T11:32:20.728Z,64.50
2018-08-25T11:34:49.666Z,65.00
2018-08-25T11:37:18.915Z,63.90
2018-08-25T11:39:47.689Z,65.00
2018-08-25T11:42:16.545Z,65.40
2018-08-25T11:44:45.537Z,65.00
2018-08-25T11:47:17.133Z,63.40
2018-08-25T11:49:47.204Z,64.50
2018-08-25T11:52:16.131Z,66.40
2018-08-25T11:54:45.144Z,66.80
2018-08-25T11:57:14.469Z,65.50
2018-08-25T11:59:43.328Z,65.80
2018-08-25T12:02:12.268Z,65.00
2018-08-25T12:04:41.121Z,64.60
2018-08-25T12:07:09.935Z,63.40
2018-08-25T12:09:38.885Z,63.20
2018-08-25T12:12:07.660Z,63.70
2018-08-25T12:14:36.477Z,63.40
2018-08-25T12:17:05.516Z,62.90
2018-08-25T12:19:34.481Z,63.50
2018-08-25T12:22:03.344Z,62.60
2018-08-25T12:24:32.164Z,63.90
2018-08-25T12:27:02.297Z,64.70
2018-08-25T12:29:31.583Z,64.30
2018-08-25T12:32:00.739Z,63.20
2018-08-25T12:34:29.595Z,64.70
2018-08-25T12:36:58.469Z,63.10
2018-08-25T12:39:27.414Z,64.30
2018-08-25T12:41:56.268Z,65.60
2018-08-25T12:44:25.145Z,66.00
2018-08-25T12:46:54.005Z,65.60
2018-08-25T12:49:22.900Z,64.90
2018-08-25T12:51:51.786Z,65.00
2018-08-25T12:54:20.684Z,63.70
2018-08-25T12:56:49.500Z,63.60
2018-08-25T12:59:18.363Z,62.80
2018-08-25T13:01:47.355Z,62.50
2018-08-25T13:04:16.130Z,63.30
2018-08-25T13:06:45.059Z,63.70
2018-08-25T13:09:13.879Z,63.50
2018-08-25T13:11:42.701Z,63.00
2018-08-25T13:14:12.467Z,62.00
2018-08-25T13:16:41.307Z,60.70
2018-08-25T13:19:10.145Z,60.50
2018-08-25T13:21:39.059Z,60.40
2018-08-25T13:24:07.872Z,59.90
2018-08-25T13:26:36.726Z,60.10
2018-08-25T13:29:05.586Z,60.50
2018-08-25T13:31:34.437Z,60.20
2018-08-25T13:34:03.334Z,60.90
2018-08-25T13:36:32.247Z,59.80
2018-08-25T13:39:01.172Z,60.20
2018-08-25T13:41:30.123Z,58.70
2018-08-25T13:43:59.064Z,60.10
2018-08-25T13:46:27.997Z,59.80
2018-08-25T13:48:56.851Z,60.10
2018-08-25T13:51:26.384Z,59.70
2018-08-25T13:53:55.404Z,59.40
2018-08-25T13:56:24.317Z,59.40
2018-08-25T13:58:53.178Z,58.70
2018-08-25T14:01:22.101Z,58.90
2018-08-25T14:03:50.997Z,58.20
2018-08-25T14:06:21.676Z,58.40
2018-08-25T14:08:50.600Z,58.30
2018-08-25T14:11:19.432Z,58.70
2018-08-25T14:13:48.464Z,59.20
2018-08-25T14:16:17.418Z,59.50
2018-08-25T14:18:46.467Z,59.30
2018-08-25T14:21:15.278Z,59.50
2018-08-25T14:23:44.105Z,59.00
2018-08-25T14:26:13.052Z,58.70
2018-08-25T14:28:41.976Z,58.30
2018-08-25T14:31:10.763Z,59.60
2018-08-25T14:33:39.621Z,60.00
2018-08-25T14:36:08.465Z,60.00
2018-08-25T14:38:37.301Z,59.70
2018-08-25T14:41:06.144Z,59.10
2018-08-25T14:43:34.975Z,59.90
2018-08-25T14:46:03.806Z,60.90
2018-08-25T14:48:32.664Z,61.50
2018-08-25T14:51:01.504Z,60.10
2018-08-25T14:53:30.351Z,60.60
2018-08-25T14:55:59.220Z,60.00
2018-08-25T14:58:28.064Z,60.40
2018-08-25T15:00:56.962Z,60.10
2018-08-25T15:03:25.833Z,60.20
2018-08-25T15:05:54.675Z,60.60
2018-08-25T15:08:23.519Z,60.40
2018-08-25T15:10:52.462Z,60.10
2018-08-25T15:13:21.385Z,60.20
2018-08-25T15:15:50.388Z,60.30
2018-08-25T15:18:19.389Z,60.30
2018-08-25T15:20:48.308Z,60.10
2018-08-25T15:23:17.164Z,59.70
2018-08-25T15:25:46.081Z,59.60
2018-08-25T15:28:15.089Z,59.30
2018-08-25T15:30:43.984Z,59.20
2018-08-25T15:33:12.864Z,59.20
2018-08-25T15:35:41.890Z,59.10
2018-08-25T15:38:10.728Z,59.20
2018-08-25T15:40:39.668Z,59.90
2018-08-25T15:43:08.525Z,59.30
2018-08-25T15:45:37.519Z,59.50
2018-08-25T15:48:06.420Z,59.40
2018-08-25T15:50:35.352Z,59.30
2018-08-25T15:53:04.270Z,59.30
2018-08-25T15:55:33.091Z,59.20
2018-08-25T15:58:02.743Z,59.10
2018-08-25T16:00:32.568Z,59.20
2018-08-25T16:03:01.485Z,59.10
2018-08-25T16:05:30.315Z,59.20
2018-08-25T16:07:59.147Z,59.30
2018-08-25T16:10:28.036Z,59.00
2018-08-25T16:12:56.875Z,59.20
2018-08-25T16:15:25.683Z,59.00
2018-08-25T16:17:54.538Z,59.10
2018-08-25T16:20:23.411Z,59.00
2018-08-25T16:22:52.224Z,58.90
2018-08-25T16:25:21.737Z,57.90
2018-08-25T16:27:50.608Z,58.90
2018-08-25T16:30:19.517Z,58.90
2018-08-25T16:32:48.432Z,58.80
2018-08-25T16:35:17.260Z,58.80
2018-08-25T16:37:46.080Z,58.70
2018-08-25T16:40:15.333Z,58.80
2018-08-25T16:42:44.149Z,58.80
2018-08-25T16:45:13.217Z,58.80
2018-08-25T16:47:42.140Z,58.40
2018-08-25T16:50:10.982Z,58.90
2018-08-25T16:52:39.820Z,58.90
2018-08-25T16:55:08.747Z,58.90
2018-08-25T16:57:37.585Z,58.90
2018-08-25T17:00:07.072Z,59.00
2018-08-25T17:02:36.033Z,59.00
2018-08-25T17:05:04.868Z,59.00
2018-08-25T17:07:34.163Z,59.00
2018-08-25T17:10:03.071Z,59.00
2018-08-25T17:12:31.919Z,59.80
2018-08-25T17:15:00.791Z,58.50
2018-08-25T17:17:29.736Z,58.70
2018-08-25T17:19:58.553Z,59.00
2018-08-25T17:22:27.391Z,59.70
2018-08-25T17:24:56.311Z,59.30
2018-08-25T17:27:25.144Z,60.40
2018-08-25T17:29:54.185Z,59.80
2018-08-25T17:32:23.054Z,59.90
2018-08-25T17:34:51.903Z,59.80
2018-08-25T17:37:20.738Z,60.40
2018-08-25T17:39:49.606Z,60.90
2018-08-25T17:42:18.435Z,60.10
2018-08-25T17:44:47.244Z,60.10
2018-08-25T17:47:16.151Z,60.70
2018-08-25T17:49:45.105Z,60.50
2018-08-25T17:52:13.947Z,60.60
2018-08-25T17:54:43.149Z,60.90
2018-08-25T17:57:12.082Z,60.80
2018-08-25T17:59:40.953Z,60.80
2018-08-25T18:02:09.925Z,60.80
2018-08-25T18:04:38.770Z,60.70
2018-08-25T18:07:07.596Z,60.50
2018-08-25T18:09:36.480Z,60.00
2018-08-25T18:12:05.304Z,60.70
2018-08-25T18:14:34.164Z,60.70
2018-08-25T18:17:03.024Z,60.80
2018-08-25T18:19:32.716Z,61.30
2018-08-25T18:22:01.535Z,61.50
2018-08-25T18:24:30.449Z,62.00
2018-08-25T18:26:59.284Z,62.40
2018-08-25T18:29:28.180Z,62.20
2018-08-25T18:31:57.068Z,62.60
2018-08-25T18:34:25.962Z,62.70
2018-08-25T18:36:54.841Z,63.50
2018-08-25T18:39:23.699Z,63.50
2018-08-25T18:41:52.544Z,64.10
2018-08-25T18:44:21.363Z,63.70
2018-08-25T18:46:50.440Z,63.80
2018-08-25T18:49:19.340Z,63.90
2018-08-25T18:51:48.273Z,64.40
2018-08-25T18:54:17.136Z,64.50
2018-08-25T18:56:46.015Z,64.50
2018-08-25T18:59:14.834Z,64.90
2018-08-25T19:01:43.765Z,65.20
2018-08-25T19:04:12.708Z,66.00
2018-08-25T19:06:41.536Z,65.60
2018-08-25T19:09:10.444Z,65.50
2018-08-25T19:11:39.296Z,65.80
2018-08-25T19:14:08.173Z,66.10
2018-08-25T19:16:37.075Z,66.00
2018-08-25T19:19:06.561Z,65.30
2018-08-25T19:21:35.404Z,65.60
2018-08-25T19:24:04.325Z,66.00
2018-08-25T19:26:33.185Z,66.70
2018-08-25T19:29:02.044Z,66.40
2018-08-25T19:31:30.863Z,66.70
2018-08-25T19:33:59.725Z,67.80
2018-08-25T19:36:28.552Z,67.00
2018-08-25T19:38:57.744Z,66.70
2018-08-25T19:41:26.648Z,65.80
2018-08-25T19:43:55.514Z,66.70
2018-08-25T19:46:24.572Z,67.00
2018-08-25T19:48:53.599Z,67.50
2018-08-25T19:51:27.040Z,68.40
2018-08-25T19:53:56.448Z,68.40
2018-08-25T19:56:25.387Z,68.10
2018-08-25T19:58:54.396Z,68.10
2018-08-25T20:01:23.236Z,68.10
2018-08-25T20:03:52.213Z,68.10
2018-08-25T20:06:21.120Z,68.50
2018-08-25T20:08:50.151Z,68.20
2018-08-25T20:11:18.976Z,68.30
2018-08-25T20:13:47.998Z,68.30
2018-08-25T20:16:18.230Z,67.90
2018-08-25T20:18:47.061Z,67.50
2018-08-25T20:21:15.957Z,68.30
2018-08-25T20:23:44.785Z,67.90
2018-08-25T20:26:13.616Z,67.90
2018-08-25T20:28:42.476Z,68.60
2018-08-25T20:31:11.287Z,68.30
2018-08-25T20:33:40.110Z,69.00
2018-08-25T20:36:09.030Z,68.60
2018-08-25T20:38:37.856Z,68.70
2018-08-25T20:41:06.767Z,69.00
2018-08-25T20:43:35.604Z,69.00
2018-08-25T20:46:04.487Z,69.20
2018-08-25T20:48:33.361Z,69.00
2018-08-25T20:51:02.300Z,69.20
2018-08-25T20:53:31.107Z,69.40
2018-08-25T20:55:59.991Z,69.60
2018-08-25T20:58:28.883Z,69.20
2018-08-25T21:00:57.710Z,70.60
2018-08-25T21:03:26.652Z,70.30
2018-08-25T21:05:55.485Z,71.30
2018-08-25T21:08:24.389Z,70.60
2018-08-25T21:10:53.299Z,71.40
2018-08-25T21:13:22.228Z,71.20
2018-08-25T21:15:51.255Z,72.00
2018-08-25T21:18:20.065Z,70.90
2018-08-25T21:20:48.891Z,70.90
2018-08-25T21:23:17.748Z,70.70
2018-08-25T21:25:46.579Z,70.50
2018-08-25T21:28:15.490Z,70.50
2018-08-25T21:30:44.416Z,70.50
2018-08-25T21:33:14.179Z,70.40
2018-08-25T21:35:43.007Z,70.50
2018-08-25T21:38:11.846Z,70.00
2018-08-25T21:40:40.725Z,70.70
2018-08-25T21:43:09.533Z,70.60
2018-08-25T21:45:38.352Z,69.80
2018-08-25T21:48:07.295Z,69.70
2018-08-25T21:50:36.121Z,70.50
2018-08-25T21:53:05.581Z,69.60
2018-08-25T21:55:34.500Z,70.00
2018-08-25T21:58:03.339Z,71.30
2018-08-25T22:00:32.180Z,70.30
2018-08-25T22:03:01.102Z,69.90
2018-08-25T22:05:29.949Z,69.60
2018-08-25T22:07:58.779Z,69.00
2018-08-25T22:10:27.748Z,68.80
2018-08-25T22:12:56.625Z,68.80
2018-08-25T22:15:25.464Z,69.40
2018-08-25T22:17:54.332Z,70.50
2018-08-25T22:20:23.152Z,69.20
2018-08-25T22:22:51.983Z,71.20
2018-08-25T22:25:20.884Z,69.90
2018-08-25T22:27:49.722Z,70.50
2018-08-25T22:30:18.540Z,71.60
2018-08-25T22:32:47.391Z,73.00
2018-08-25T22:35:16.271Z,71.00
2018-08-25T22:37:45.111Z,71.10
2018-08-25T22:40:14.000Z,71.00
2018-08-25T22:42:42.887Z,72.00
2018-08-25T22:45:11.733Z,71.30
2018-08-25T22:47:41.169Z,72.00
2018-08-25T22:50:10.229Z,73.70
2018-08-25T22:52:44.300Z,73.80
2018-08-25T22:55:13.252Z,73.90
2018-08-25T22:57:42.114Z,75.10
2018-08-25T23:00:11.066Z,74.30
2018-08-25T23:02:41.367Z,73.90
2018-08-25T23:05:10.292Z,74.20
2018-08-25T23:07:39.532Z,75.00
2018-08-25T23:10:08.700Z,74.90
2018-08-25T23:12:37.505Z,74.70
2018-08-25T23:15:06.367Z,74.50
2018-08-25T23:17:35.284Z,74.90
2018-08-25T23:20:04.126Z,74.70
2018-08-25T23:22:32.944Z,75.20
2018-08-25T23:25:01.859Z,74.70
2018-08-25T23:27:30.703Z,75.80
2018-08-25T23:29:59.517Z,75.40
2018-08-25T23:32:28.383Z,76.40
2018-08-25T23:34:57.203Z,74.90
2018-08-25T23:37:26.020Z,75.40
2018-08-25T23:39:54.888Z,76.20
2018-08-25T23:42:23.704Z,76.20
2018-08-25T23:44:52.530Z,76.60
2018-08-25T23:47:21.387Z,76.60
2018-08-25T23:49:50.205Z,75.60
2018-08-25T23:52:19.027Z,76.40
2018-08-25T23:54:47.982Z,76.60
2018-08-25T23:57:16.870Z,77.10
2018-08-25T23:59:45.691Z,77.70
